Crni Vrh, Serbia
Current Conditions -  °F | °C
As of 4:00 AM on Friday 19 Dec 2014 (Local Time) from LYNI Reporting Station
Haze Haze  
Wind Chill: 41°   Ceiling: 1700
Heat Index: 41°   Visibility: 1.5mi
Dew Point: 41°   Wind: 3mph
Humidity: 100%   Direction: 90°E
Pressure: 30.21"   Gusts: NA
Location:  44.12°N, 21.95°E
Report Text: LYNI 190200Z 09003KT 2500 BR FEW008 BKN017 05/05 Q1023
Loading
Personal Weather Stations






























Interactive Weather Map New forecast layout! Learn more

10-Day Weather Forecast

Advertisements
Track Severe Weather on mobile